createdAt,value
2018-09-12T00:01:00.119Z,61.00
2018-09-12T00:03:28.682Z,61.60
2018-09-12T00:05:57.262Z,62.20
2018-09-12T00:08:25.892Z,61.70
2018-09-12T00:10:54.493Z,61.90
2018-09-12T00:13:23.066Z,62.30
2018-09-12T00:15:51.952Z,62.80
2018-09-12T00:18:20.527Z,62.50
2018-09-12T00:20:49.122Z,62.90
2018-09-12T00:23:18.021Z,63.30
2018-09-12T00:25:46.591Z,63.20
2018-09-12T00:28:15.174Z,63.20
2018-09-12T00:30:43.763Z,63.70
2018-09-12T00:33:12.359Z,64.00
2018-09-12T00:35:40.907Z,63.70
2018-09-12T00:38:09.488Z,64.40
2018-09-12T00:40:38.078Z,63.80
2018-09-12T00:43:06.666Z,64.30
2018-09-12T00:45:35.265Z,64.40
2018-09-12T00:48:03.849Z,64.30
2018-09-12T00:50:32.390Z,64.60
2018-09-12T00:53:00.964Z,64.90
2018-09-12T00:55:29.563Z,64.50
2018-09-12T00:57:58.130Z,64.90
2018-09-12T01:00:26.746Z,65.30
2018-09-12T01:02:55.331Z,65.10
2018-09-12T01:05:23.916Z,65.10
2018-09-12T01:07:52.528Z,65.40
2018-09-12T01:10:21.068Z,65.90
2018-09-12T01:12:49.587Z,65.40
2018-09-12T01:15:18.129Z,65.90
2018-09-12T01:17:46.628Z,64.50
2018-09-12T01:20:15.195Z,65.60
2018-09-12T01:22:43.702Z,65.90
2018-09-12T01:25:12.205Z,65.80
2018-09-12T01:27:40.731Z,66.00
2018-09-12T01:30:10.172Z,65.70
2018-09-12T01:32:38.667Z,66.10
2018-09-12T01:35:07.239Z,65.90
2018-09-12T01:37:35.764Z,65.90
2018-09-12T01:40:04.375Z,65.80
2018-09-12T01:42:32.890Z,65.70
2018-09-12T01:45:01.417Z,66.00
2018-09-12T01:47:30.000Z,65.70
2018-09-12T01:49:58.492Z,65.80
2018-09-12T01:52:27.032Z,65.30
2018-09-12T01:54:55.528Z,65.40
2018-09-12T01:57:24.344Z,66.40
2018-09-12T01:59:52.833Z,66.40
2018-09-12T02:02:21.364Z,66.20
2018-09-12T02:04:49.869Z,65.90
2018-09-12T02:07:18.375Z,65.90
2018-09-12T02:09:46.923Z,66.30
2018-09-12T02:12:15.443Z,66.20
2018-09-12T02:14:43.943Z,66.20
2018-09-12T02:17:12.461Z,65.80
2018-09-12T02:19:41.229Z,66.50
2018-09-12T02:22:09.746Z,66.50
2018-09-12T02:24:38.483Z,66.40
2018-09-12T02:27:07.033Z,66.40
2018-09-12T02:29:35.552Z,66.10
2018-09-12T02:32:04.028Z,65.90
2018-09-12T02:34:32.549Z,66.40
2018-09-12T02:37:01.057Z,66.40
2018-09-12T02:39:29.564Z,66.80
2018-09-12T02:41:58.072Z,66.70
2018-09-12T02:44:26.604Z,67.20
2018-09-12T02:46:55.401Z,66.80
2018-09-12T02:49:23.913Z,66.90
2018-09-12T02:51:52.432Z,67.10
2018-09-12T02:54:20.929Z,68.00
2018-09-12T02:56:49.440Z,68.10
2018-09-12T02:59:17.939Z,67.50
2018-09-12T03:01:46.464Z,67.80
2018-09-12T03:04:31.699Z,68.80
2018-09-12T03:07:00.269Z,67.80
2018-09-12T03:09:28.760Z,67.80
2018-09-12T03:11:57.282Z,68.90
2018-09-12T03:14:25.796Z,69.30
2018-09-12T03:16:54.280Z,68.40
2018-09-12T03:19:22.796Z,69.10
2018-09-12T03:21:51.633Z,68.50
2018-09-12T03:24:20.196Z,68.90
2018-09-12T03:26:48.798Z,69.00
2018-09-12T03:29:17.288Z,69.30
2018-09-12T03:31:45.813Z,69.30
2018-09-12T03:34:14.315Z,69.50
2018-09-12T03:36:42.820Z,70.00
2018-09-12T03:39:12.129Z,69.60
2018-09-12T03:41:41.311Z,70.10
2018-09-12T03:44:11.332Z,70.40
2018-09-12T03:46:40.414Z,70.00
2018-09-12T03:49:08.935Z,70.10
2018-09-12T03:51:37.435Z,69.70
2018-09-12T03:54:06.261Z,70.10
2018-09-12T03:56:34.771Z,70.70
2018-09-12T03:59:04.229Z,70.20
2018-09-12T04:01:32.799Z,70.60
2018-09-12T04:04:01.307Z,70.90
2018-09-12T04:06:29.804Z,71.10
2018-09-12T04:08:58.356Z,70.80
2018-09-12T04:11:26.908Z,71.10
2018-09-12T04:13:55.419Z,71.20
2018-09-12T04:16:23.927Z,71.50
2018-09-12T04:18:52.438Z,70.90
2018-09-12T04:21:20.959Z,71.40
2018-09-12T04:23:49.477Z,71.30
2018-09-12T04:26:18.577Z,70.80
2018-09-12T04:28:47.404Z,71.60
2018-09-12T04:31:15.904Z,71.00
2018-09-12T04:33:44.400Z,71.20
2018-09-12T04:36:12.925Z,71.10
2018-09-12T04:38:41.451Z,70.40
2018-09-12T04:41:09.941Z,70.40
2018-09-12T04:43:38.572Z,70.20
2018-09-12T04:46:07.081Z,69.90
2018-09-12T04:48:35.625Z,69.80
2018-09-12T04:51:04.148Z,70.10
2018-09-12T04:53:32.652Z,68.90
2018-09-12T04:56:01.187Z,69.50
2018-09-12T04:58:29.672Z,69.60
2018-09-12T05:00:58.210Z,69.10
2018-09-12T05:03:26.707Z,69.20
2018-09-12T05:05:55.223Z,69.10
2018-09-12T05:08:23.723Z,68.10
2018-09-12T05:10:52.252Z,69.30
2018-09-12T05:13:20.754Z,69.60
2018-09-12T05:15:49.369Z,69.20
2018-09-12T05:18:17.836Z,69.40
2018-09-12T05:20:46.368Z,69.60
2018-09-12T05:23:14.884Z,70.00
2018-09-12T05:25:43.675Z,70.00
2018-09-12T05:28:12.187Z,70.00
2018-09-12T05:30:40.695Z,70.20
2018-09-12T05:33:09.272Z,70.00
2018-09-12T05:35:37.754Z,69.90
2018-09-12T05:38:06.292Z,70.10
2018-09-12T05:40:34.803Z,69.90
2018-09-12T05:43:03.287Z,69.10
2018-09-12T05:45:31.820Z,70.40
2018-09-12T05:48:00.309Z,70.30
2018-09-12T05:50:28.823Z,71.20
2018-09-12T05:52:57.359Z,70.40
2018-09-12T05:55:25.888Z,70.70
2018-09-12T05:57:54.369Z,70.60
2018-09-12T06:00:23.206Z,70.40
2018-09-12T06:02:52.072Z,69.10
2018-09-12T06:05:20.589Z,68.90
2018-09-12T06:07:49.092Z,68.80
2018-09-12T06:10:17.617Z,69.30
2018-09-12T06:12:46.150Z,68.70
2018-09-12T06:15:14.692Z,67.90
2018-09-12T06:17:43.224Z,69.20
2018-09-12T06:20:12.020Z,67.90
2018-09-12T06:22:40.568Z,67.80
2018-09-12T06:25:09.051Z,67.80
2018-09-12T06:27:37.581Z,66.70
2018-09-12T06:30:06.219Z,67.30
2018-09-12T06:32:34.728Z,66.60
2018-09-12T06:35:03.318Z,66.00
2018-09-12T06:37:31.824Z,64.70
2018-09-12T06:40:00.320Z,63.00
2018-09-12T06:42:28.827Z,62.70
2018-09-12T06:44:57.328Z,62.40
2018-09-12T06:47:25.851Z,61.60
2018-09-12T06:49:54.336Z,60.40
2018-09-12T06:52:22.885Z,60.00
2018-09-12T06:54:51.816Z,58.90
2018-09-12T06:57:20.290Z,58.80
2018-09-12T06:59:48.806Z,59.00
2018-09-12T07:02:17.303Z,59.10
2018-09-12T07:04:45.838Z,58.80
2018-09-12T07:07:14.323Z,57.80
2018-09-12T07:09:42.839Z,57.90
2018-09-12T07:12:11.686Z,56.30
2018-09-12T07:14:40.191Z,56.70
2018-09-12T07:17:08.708Z,55.90
2018-09-12T07:19:37.236Z,57.00
2018-09-12T07:22:05.751Z,56.10
2018-09-12T07:24:34.372Z,54.90
2018-09-12T07:27:02.823Z,54.60
2018-09-12T07:29:31.328Z,54.00
2018-09-12T07:31:59.871Z,53.60
2018-09-12T07:34:28.373Z,53.90
2018-09-12T07:36:56.883Z,53.80
2018-09-12T07:39:25.396Z,53.30
2018-09-12T07:41:53.959Z,53.00
2018-09-12T07:44:22.456Z,52.70
2018-09-12T07:46:50.947Z,53.20
2018-09-12T07:49:19.507Z,52.20
2018-09-12T07:51:47.988Z,51.90
2018-09-12T07:54:16.472Z,51.70
2018-09-12T07:56:45.014Z,52.10
2018-09-12T07:59:13.496Z,50.70
2018-09-12T08:01:41.999Z,50.50
2018-09-12T08:04:10.514Z,51.30
2018-09-12T08:06:39.012Z,51.50
2018-09-12T08:09:10.739Z,50.80
2018-09-12T08:11:39.232Z,50.60
2018-09-12T08:14:07.816Z,51.10
2018-09-12T08:16:36.367Z,50.70
2018-09-12T08:19:05.198Z,50.20
2018-09-12T08:21:33.708Z,50.60
2018-09-12T08:24:02.212Z,50.10
2018-09-12T08:26:30.745Z,50.70
2018-09-12T08:28:59.279Z,50.20
2018-09-12T08:31:28.065Z,49.40
2018-09-12T08:33:56.600Z,49.10
2018-09-12T08:36:25.154Z,49.20
2018-09-12T08:38:53.667Z,48.90
2018-09-12T08:41:22.211Z,48.60
2018-09-12T08:43:50.998Z,47.30
2018-09-12T08:46:19.504Z,47.50
2018-09-12T08:48:48.096Z,46.90
2018-09-12T08:51:16.620Z,47.00
2018-09-12T08:53:45.151Z,46.30
2018-09-12T08:56:13.647Z,45.10
2018-09-12T08:58:42.230Z,44.90
2018-09-12T09:01:10.728Z,45.40
2018-09-12T09:03:39.244Z,44.80
2018-09-12T09:06:08.084Z,44.70
2018-09-12T09:08:36.616Z,44.60
2018-09-12T09:11:05.168Z,45.40
2018-09-12T09:13:33.707Z,43.90
2018-09-12T09:16:02.195Z,44.60
2018-09-12T09:18:30.716Z,44.00
2018-09-12T09:20:59.230Z,44.40
2018-09-12T09:23:28.059Z,44.20
2018-09-12T09:25:56.556Z,44.40
2018-09-12T09:28:25.064Z,44.60
2018-09-12T09:30:53.596Z,44.70
2018-09-12T09:33:22.096Z,44.80
2018-09-12T09:35:51.019Z,44.90
2018-09-12T09:38:19.485Z,44.30
2018-09-12T09:40:48.011Z,44.80
2018-09-12T09:43:16.567Z,44.50
2018-09-12T09:45:45.058Z,43.50
2018-09-12T09:48:13.748Z,44.30
2018-09-12T09:50:42.104Z,44.30
2018-09-12T09:53:10.612Z,44.70
2018-09-12T09:55:39.180Z,43.90
2018-09-12T09:58:07.693Z,44.00
2018-09-12T10:00:41.532Z,43.40
2018-09-12T10:03:15.496Z,44.00
2018-09-12T10:05:49.403Z,43.20
2018-09-12T10:08:23.399Z,43.70
2018-09-12T10:10:52.252Z,43.00
2018-09-12T10:13:20.743Z,43.60
2018-09-12T10:15:49.237Z,43.70
2018-09-12T10:18:17.972Z,43.20
2018-09-12T10:20:46.928Z,43.10
2018-09-12T10:23:15.451Z,42.80
2018-09-12T10:25:43.979Z,42.70
2018-09-12T10:28:12.491Z,41.70
2018-09-12T10:30:40.964Z,41.50
2018-09-12T10:33:09.470Z,41.20
2018-09-12T10:35:37.977Z,41.40
2018-09-12T10:38:06.493Z,41.20
2018-09-12T10:40:35.316Z,41.30
2018-09-12T10:43:04.091Z,41.90
2018-09-12T10:45:32.598Z,40.70
2018-09-12T10:48:01.093Z,41.30
2018-09-12T10:50:29.637Z,42.60
2018-09-12T10:52:58.132Z,40.90
2018-09-12T10:55:26.952Z,40.60
2018-09-12T10:57:55.641Z,40.90
2018-09-12T11:00:24.176Z,41.00
2018-09-12T11:02:52.694Z,40.00
2018-09-12T11:05:21.223Z,39.90
2018-09-12T11:07:49.758Z,40.20
2018-09-12T11:10:18.258Z,40.20
2018-09-12T11:12:47.043Z,39.60
2018-09-12T11:15:15.584Z,39.50
2018-09-12T11:17:44.119Z,39.30
2018-09-12T11:20:12.627Z,38.80
2018-09-12T11:22:41.518Z,39.60
2018-09-12T11:25:10.051Z,38.50
2018-09-12T11:27:38.567Z,38.90
2018-09-12T11:30:07.137Z,39.20
2018-09-12T11:32:35.635Z,38.50
2018-09-12T11:35:04.180Z,39.10
2018-09-12T11:37:32.677Z,39.10
2018-09-12T11:40:01.225Z,39.50
2018-09-12T11:42:29.722Z,38.60
2018-09-12T11:44:58.213Z,38.70
2018-09-12T11:47:26.725Z,39.20
2018-09-12T11:49:59.774Z,39.10
2018-09-12T11:52:29.089Z,37.70
2018-09-12T11:54:57.631Z,38.00
2018-09-12T11:57:26.146Z,38.40
2018-09-12T11:59:54.695Z,38.50
2018-09-12T12:02:23.245Z,38.90
2018-09-12T12:04:52.031Z,38.50
2018-09-12T12:07:20.516Z,37.40
2018-09-12T12:09:49.059Z,37.50
2018-09-12T12:12:17.828Z,37.60
2018-09-12T12:14:46.308Z,36.80
2018-09-12T12:17:14.933Z,37.20
2018-09-12T12:19:43.416Z,35.90
2018-09-12T12:22:11.923Z,36.30
2018-09-12T12:24:40.444Z,36.30
2018-09-12T12:27:08.927Z,36.40
2018-09-12T12:29:37.471Z,35.90
2018-09-12T12:32:05.973Z,35.10
2018-09-12T12:34:34.460Z,35.60
2018-09-12T12:37:02.967Z,35.70
2018-09-12T12:39:31.477Z,34.80
2018-09-12T12:42:00.441Z,35.70
2018-09-12T12:44:28.952Z,35.60
2018-09-12T12:46:57.470Z,35.30
2018-09-12T12:49:26.004Z,34.70
2018-09-12T12:51:54.792Z,35.00
2018-09-12T12:54:23.316Z,35.80
2018-09-12T12:56:51.835Z,35.30
2018-09-12T12:59:20.352Z,35.40
2018-09-12T13:01:48.899Z,35.00
2018-09-12T13:04:17.394Z,35.70
2018-09-12T13:06:45.999Z,35.90
2018-09-12T13:09:14.550Z,35.50
2018-09-12T13:11:43.084Z,34.80
2018-09-12T13:14:11.615Z,35.60
2018-09-12T13:16:40.151Z,36.40
2018-09-12T13:19:08.772Z,36.40
2018-09-12T13:21:37.409Z,36.30
2018-09-12T13:24:05.844Z,36.00
2018-09-12T13:26:34.340Z,37.00
2018-09-12T13:29:02.962Z,36.60
2018-09-12T13:31:31.788Z,36.80
2018-09-12T13:34:00.300Z,36.00
2018-09-12T13:36:28.823Z,35.60
2018-09-12T13:38:57.372Z,34.50
2018-09-12T13:41:25.882Z,34.90
2018-09-12T13:43:54.413Z,34.90
2018-09-12T13:46:22.939Z,34.60
2018-09-12T13:48:51.483Z,34.80
2018-09-12T13:51:19.993Z,35.70
2018-09-12T13:53:48.497Z,35.70
2018-09-12T13:56:17.018Z,35.80
2018-09-12T13:58:45.531Z,35.40
2018-09-12T14:01:14.040Z,34.80
2018-09-12T14:03:42.510Z,34.90
2018-09-12T14:06:11.033Z,35.20
2018-09-12T14:08:39.537Z,34.90
2018-09-12T14:11:08.079Z,34.90
2018-09-12T14:13:36.864Z,34.40
2018-09-12T14:16:05.408Z,33.80
2018-09-12T14:18:33.940Z,34.80
2018-09-12T14:21:02.459Z,33.90
2018-09-12T14:23:30.995Z,33.60
2018-09-12T14:25:59.536Z,33.60
2018-09-12T14:28:28.035Z,34.20
2018-09-12T14:30:56.527Z,35.00
2018-09-12T14:33:25.038Z,35.20
2018-09-12T14:35:53.597Z,35.90
2018-09-12T14:38:22.068Z,35.10
2018-09-12T14:40:50.612Z,34.90
2018-09-12T14:43:19.148Z,34.90
2018-09-12T14:45:47.666Z,35.60
2018-09-12T14:48:16.178Z,35.50
2018-09-12T14:50:44.713Z,35.70
2018-09-12T14:53:13.200Z,36.60
2018-09-12T14:55:41.792Z,37.40
2018-09-12T14:58:10.308Z,37.10
2018-09-12T15:00:38.883Z,36.70
2018-09-12T15:03:07.405Z,35.70
2018-09-12T15:05:35.916Z,36.00
2018-09-12T15:08:04.455Z,35.90
2018-09-12T15:10:33.663Z,35.90
2018-09-12T15:13:02.156Z,36.00
2018-09-12T15:15:30.644Z,36.80
2018-09-12T15:17:59.137Z,36.50
2018-09-12T15:20:27.652Z,37.60
2018-09-12T15:22:56.190Z,36.90
2018-09-12T15:25:24.688Z,37.10
2018-09-12T15:27:53.200Z,36.50
2018-09-12T15:30:22.048Z,36.80
2018-09-12T15:32:50.667Z,36.90
2018-09-12T15:35:19.189Z,37.10
2018-09-12T15:37:47.739Z,36.60
2018-09-12T15:40:16.237Z,36.90
2018-09-12T15:42:45.045Z,37.10
2018-09-12T15:45:13.695Z,37.50
2018-09-12T15:47:42.200Z,37.80
2018-09-12T15:50:10.711Z,36.50
2018-09-12T15:52:39.308Z,38.10
2018-09-12T15:55:07.819Z,37.60
2018-09-12T15:57:36.950Z,37.90
2018-09-12T16:00:05.911Z,37.90
2018-09-12T16:02:34.493Z,38.90
2018-09-12T16:05:02.981Z,37.80
2018-09-12T16:07:31.775Z,38.20
2018-09-12T16:10:00.281Z,37.90
2018-09-12T16:12:28.760Z,37.90
2018-09-12T16:14:57.276Z,38.20
2018-09-12T16:17:25.768Z,38.30
2018-09-12T16:19:54.269Z,38.10
2018-09-12T16:22:22.740Z,38.80
2018-09-12T16:24:51.246Z,39.40
2018-09-12T16:27:20.222Z,39.80
2018-09-12T16:29:48.731Z,39.80
2018-09-12T16:32:17.287Z,40.60
2018-09-12T16:34:45.883Z,40.10
2018-09-12T16:37:14.377Z,41.20
2018-09-12T16:39:42.920Z,40.80
2018-09-12T16:42:11.441Z,40.90
2018-09-12T16:44:39.967Z,41.30
2018-09-12T16:47:08.461Z,41.60
2018-09-12T16:49:36.961Z,41.50
2018-09-12T16:52:05.482Z,42.40
2018-09-12T16:54:34.001Z,43.10
2018-09-12T16:57:02.515Z,42.90
2018-09-12T16:59:31.037Z,43.20
2018-09-12T17:01:59.602Z,43.40
2018-09-12T17:04:28.120Z,44.00
2018-09-12T17:06:56.661Z,44.20
2018-09-12T17:09:25.190Z,45.10
2018-09-12T17:11:53.681Z,45.60
2018-09-12T17:14:22.197Z,46.10
2018-09-12T17:16:50.724Z,47.30
2018-09-12T17:19:19.596Z,47.50
2018-09-12T17:21:48.400Z,47.90
2018-09-12T17:24:16.877Z,48.60
2018-09-12T17:26:45.403Z,49.30
2018-09-12T17:29:13.909Z,49.20
2018-09-12T17:31:42.684Z,49.80
2018-09-12T17:34:11.207Z,50.30
2018-09-12T17:36:39.741Z,50.80
2018-09-12T17:39:09.491Z,51.40
2018-09-12T17:41:37.992Z,51.90
2018-09-12T17:44:06.544Z,52.30
2018-09-12T17:46:35.084Z,52.60
2018-09-12T17:49:03.640Z,53.20
2018-09-12T17:51:32.717Z,53.80
2018-09-12T17:54:01.461Z,54.10
2018-09-12T17:56:30.064Z,54.70
2018-09-12T17:58:58.708Z,55.00
2018-09-12T18:01:27.249Z,54.60
2018-09-12T18:03:55.756Z,54.70
2018-09-12T18:06:24.268Z,53.40
2018-09-12T18:08:53.076Z,53.40
2018-09-12T18:11:21.644Z,52.80
2018-09-12T18:13:50.168Z,52.30
2018-09-12T18:16:18.673Z,52.70
2018-09-12T18:18:47.167Z,52.50
2018-09-12T18:21:15.981Z,53.10
2018-09-12T18:23:44.484Z,53.50
2018-09-12T18:26:13.028Z,53.90
2018-09-12T18:28:41.558Z,54.30
2018-09-12T18:31:10.149Z,55.20
2018-09-12T18:33:38.661Z,55.50
2018-09-12T18:36:07.523Z,55.70
2018-09-12T18:38:36.073Z,56.50
2018-09-12T18:41:04.621Z,56.80
2018-09-12T18:43:33.100Z,57.20
2018-09-12T18:46:01.936Z,57.50
2018-09-12T18:48:30.425Z,58.20
2018-09-12T18:51:02.746Z,58.70
2018-09-12T18:53:31.255Z,58.80
2018-09-12T18:55:59.752Z,59.40
2018-09-12T18:58:28.283Z,59.80
2018-09-12T19:00:56.751Z,61.20
2018-09-12T19:03:25.311Z,61.00
2018-09-12T19:05:53.808Z,61.70
2018-09-12T19:08:22.328Z,62.30
2018-09-12T19:10:50.960Z,62.90
2018-09-12T19:13:19.653Z,63.20
2018-09-12T19:15:48.169Z,63.30
2018-09-12T19:18:16.825Z,63.80
2018-09-12T19:20:46.321Z,64.30
2018-09-12T19:23:14.973Z,64.50
2018-09-12T19:25:43.872Z,65.10
2018-09-12T19:28:12.400Z,65.50
2018-09-12T19:30:40.909Z,65.90
2018-09-12T19:33:09.433Z,66.80
2018-09-12T19:35:37.935Z,66.70
2018-09-12T19:38:06.424Z,66.90
2018-09-12T19:40:34.973Z,67.20
2018-09-12T19:43:03.484Z,67.40
2018-09-12T19:45:31.972Z,67.90
2018-09-12T19:48:00.519Z,68.50
2018-09-12T19:50:29.037Z,68.60
2018-09-12T19:52:57.564Z,69.10
2018-09-12T19:55:26.084Z,69.40
2018-09-12T19:57:54.584Z,69.50
2018-09-12T20:00:23.139Z,69.60
2018-09-12T20:02:51.645Z,69.70
2018-09-12T20:05:20.168Z,70.10
2018-09-12T20:07:48.729Z,70.40
2018-09-12T20:10:17.263Z,71.20
2018-09-12T20:12:45.788Z,71.20
2018-09-12T20:15:14.317Z,71.50
2018-09-12T20:17:42.837Z,71.70
2018-09-12T20:20:11.370Z,72.10
2018-09-12T20:22:39.903Z,72.30
2018-09-12T20:25:08.476Z,72.30
2018-09-12T20:27:36.976Z,72.50
2018-09-12T20:30:05.635Z,73.00
2018-09-12T20:32:34.195Z,73.00
2018-09-12T20:35:02.710Z,73.50
2018-09-12T20:37:31.248Z,73.30
2018-09-12T20:39:59.733Z,73.20
2018-09-12T20:42:28.218Z,73.30
2018-09-12T20:44:56.758Z,73.30
2018-09-12T20:47:25.272Z,73.60
2018-09-12T20:49:53.776Z,74.10
2018-09-12T20:52:22.310Z,73.90
2018-09-12T20:54:50.828Z,74.00
2018-09-12T20:57:19.548Z,74.10
2018-09-12T20:59:48.073Z,74.30
2018-09-12T21:02:16.552Z,74.50
2018-09-12T21:04:45.068Z,74.40
2018-09-12T21:07:13.575Z,74.40
2018-09-12T21:09:42.116Z,74.80
2018-09-12T21:12:10.604Z,74.90
2018-09-12T21:14:39.116Z,74.80
2018-09-12T21:17:07.615Z,75.00
2018-09-12T21:19:36.148Z,75.10
2018-09-12T21:22:04.660Z,75.10
2018-09-12T21:24:33.186Z,75.20
2018-09-12T21:27:02.049Z,75.60
2018-09-12T21:29:30.567Z,75.70
2018-09-12T21:31:59.080Z,75.60
2018-09-12T21:34:27.613Z,75.90
2018-09-12T21:36:56.131Z,75.80
2018-09-12T21:39:24.645Z,76.00
2018-09-12T21:41:53.132Z,75.60
2018-09-12T21:44:21.656Z,75.90
2018-09-12T21:46:50.176Z,76.30
2018-09-12T21:49:18.666Z,76.50
2018-09-12T21:51:47.200Z,77.10
2018-09-12T21:54:15.685Z,76.50
2018-09-12T21:56:44.194Z,76.10
2018-09-12T21:59:12.691Z,76.40
2018-09-12T22:01:41.226Z,75.50
2018-09-12T22:04:09.749Z,76.40
2018-09-12T22:06:38.235Z,76.40
2018-09-12T22:09:09.871Z,76.30
2018-09-12T22:11:38.405Z,76.80
2018-09-12T22:14:06.943Z,76.70
2018-09-12T22:16:35.456Z,76.60
2018-09-12T22:19:04.305Z,76.70
2018-09-12T22:21:32.828Z,76.80
2018-09-12T22:24:01.429Z,76.80
2018-09-12T22:26:29.932Z,77.10
2018-09-12T22:28:58.456Z,77.40
2018-09-12T22:31:26.945Z,77.40
2018-09-12T22:33:55.463Z,77.50
2018-09-12T22:36:23.942Z,77.70
2018-09-12T22:38:52.480Z,77.40
2018-09-12T22:41:21.181Z,77.50
2018-09-12T22:43:50.160Z,77.70
2018-09-12T22:46:18.704Z,77.60
2018-09-12T22:48:47.225Z,77.60
2018-09-12T22:51:15.768Z,77.90
2018-09-12T22:53:44.295Z,78.20
2018-09-12T22:56:12.793Z,78.10
2018-09-12T22:58:41.300Z,78.10
2018-09-12T23:01:09.815Z,78.20
2018-09-12T23:03:38.364Z,78.30
2018-09-12T23:06:06.943Z,78.30
2018-09-12T23:08:35.637Z,78.10
2018-09-12T23:11:04.167Z,78.40
2018-09-12T23:13:32.697Z,78.70
2018-09-12T23:16:01.237Z,79.10
2018-09-12T23:18:29.748Z,79.10
2018-09-12T23:20:58.236Z,79.50
2018-09-12T23:23:26.780Z,79.40
2018-09-12T23:25:55.281Z,79.70
2018-09-12T23:28:23.809Z,79.50
2018-09-12T23:30:52.333Z,79.50
2018-09-12T23:33:20.846Z,79.60
2018-09-12T23:35:49.332Z,79.60
2018-09-12T23:38:17.840Z,79.80
2018-09-12T23:40:46.356Z,79.90
2018-09-12T23:43:14.906Z,80.20
2018-09-12T23:45:43.441Z,80.40
2018-09-12T23:48:11.968Z,81.20
2018-09-12T23:50:40.481Z,80.70
2018-09-12T23:53:08.968Z,81.20
2018-09-12T23:55:37.485Z,80.70
2018-09-12T23:58:05.984Z,80.80
